createdAt,value
2017-07-31T00:00:55.073Z,19.70
2017-07-31T00:03:22.630Z,19.70
2017-07-31T00:05:50.174Z,19.70
2017-07-31T00:08:17.721Z,19.70
2017-07-31T00:10:45.265Z,19.70
2017-07-31T00:13:12.862Z,19.60
2017-07-31T00:15:42.420Z,19.60
2017-07-31T00:18:09.973Z,19.60
2017-07-31T00:20:37.484Z,19.60
2017-07-31T00:23:05.045Z,19.60
2017-07-31T00:25:33.564Z,19.60
2017-07-31T00:28:01.165Z,19.60
2017-07-31T00:30:28.688Z,19.60
2017-07-31T00:32:56.221Z,19.50
2017-07-31T00:35:23.750Z,19.60
2017-07-31T00:37:51.359Z,19.50
2017-07-31T00:40:18.933Z,19.40
2017-07-31T00:42:46.513Z,19.50
2017-07-31T00:45:14.050Z,19.50
2017-07-31T00:47:41.589Z,19.50
2017-07-31T00:50:09.099Z,19.50
2017-07-31T00:52:36.672Z,19.50
2017-07-31T00:55:04.219Z,19.40
2017-07-31T00:57:31.771Z,19.50
2017-07-31T00:59:59.291Z,19.40
2017-07-31T01:02:26.841Z,19.40
2017-07-31T01:04:54.374Z,19.50
2017-07-31T01:07:21.909Z,19.40
2017-07-31T01:09:49.434Z,19.50
2017-07-31T01:12:16.984Z,19.50
2017-07-31T01:14:44.506Z,19.50
2017-07-31T01:17:12.032Z,19.50
2017-07-31T01:19:39.547Z,19.50
2017-07-31T01:22:07.124Z,19.40
2017-07-31T01:24:42.411Z,19.30
2017-07-31T01:27:09.950Z,19.20
2017-07-31T01:29:37.461Z,19.20
2017-07-31T01:32:05.006Z,19.20
2017-07-31T01:34:32.540Z,19.10
2017-07-31T01:37:00.164Z,19.10
2017-07-31T01:39:27.694Z,19.10
2017-07-31T01:41:55.251Z,19.10
2017-07-31T01:44:22.794Z,19.20
2017-07-31T01:46:50.381Z,19.20
2017-07-31T01:49:17.898Z,19.20
2017-07-31T01:51:45.443Z,19.20
2017-07-31T01:54:13.003Z,19.20
2017-07-31T01:56:40.592Z,19.20
2017-07-31T01:59:08.134Z,19.10
2017-07-31T02:01:35.719Z,19.10
2017-07-31T02:04:03.246Z,19.00
2017-07-31T02:06:30.830Z,19.00
2017-07-31T02:08:58.408Z,18.90
2017-07-31T02:11:25.974Z,18.90
2017-07-31T02:13:53.498Z,18.80
2017-07-31T02:16:21.029Z,18.80
2017-07-31T02:18:48.558Z,18.80
2017-07-31T02:21:16.135Z,18.80
2017-07-31T02:23:43.687Z,18.90
2017-07-31T02:26:11.301Z,18.80
2017-07-31T02:28:38.828Z,18.80
2017-07-31T02:31:06.395Z,18.80
2017-07-31T02:33:33.965Z,18.80
2017-07-31T02:36:01.553Z,18.80
2017-07-31T02:38:29.091Z,18.80
2017-07-31T02:40:56.634Z,18.80
2017-07-31T02:43:24.166Z,18.80
2017-07-31T02:45:57.436Z,18.80
2017-07-31T02:48:24.950Z,18.80
2017-07-31T02:50:52.503Z,18.80
2017-07-31T02:53:20.025Z,18.80
2017-07-31T02:55:47.579Z,18.80
2017-07-31T02:58:15.142Z,18.80
2017-07-31T03:00:42.717Z,18.80
2017-07-31T03:03:10.277Z,18.80
2017-07-31T03:05:37.834Z,18.80
2017-07-31T03:08:05.412Z,18.80
2017-07-31T03:10:33.014Z,18.80
2017-07-31T03:13:00.598Z,18.70
2017-07-31T03:15:31.733Z,18.70
2017-07-31T03:17:59.265Z,18.60
2017-07-31T03:20:26.788Z,18.60
2017-07-31T03:22:54.425Z,18.50
2017-07-31T03:25:21.962Z,18.50
2017-07-31T03:27:49.469Z,18.50
2017-07-31T03:30:17.054Z,18.50
2017-07-31T03:32:44.560Z,18.50
2017-07-31T03:35:12.127Z,18.40
2017-07-31T03:37:39.716Z,18.40
2017-07-31T03:40:07.253Z,18.50
2017-07-31T03:42:34.758Z,18.50
2017-07-31T03:45:02.303Z,18.40
2017-07-31T03:47:29.821Z,18.50
2017-07-31T03:49:57.352Z,18.40
2017-07-31T03:52:24.888Z,18.40
2017-07-31T03:54:52.509Z,18.40
2017-07-31T03:57:20.044Z,18.40
2017-07-31T03:59:47.585Z,18.40
2017-07-31T04:02:15.089Z,18.40
2017-07-31T04:04:42.621Z,18.40
2017-07-31T04:07:10.141Z,18.40
2017-07-31T04:09:37.671Z,18.40
2017-07-31T04:12:05.198Z,18.40
2017-07-31T04:14:32.773Z,18.40
2017-07-31T04:17:00.289Z,18.40
2017-07-31T04:19:27.868Z,18.40
2017-07-31T04:21:55.399Z,18.40
2017-07-31T04:24:22.926Z,18.50
2017-07-31T04:26:50.448Z,18.50
2017-07-31T04:29:17.965Z,18.60
2017-07-31T04:31:45.537Z,18.60
2017-07-31T04:34:13.050Z,18.70
2017-07-31T04:36:40.605Z,18.70
2017-07-31T04:39:08.134Z,18.80
2017-07-31T04:41:35.686Z,19.00
2017-07-31T04:44:03.232Z,19.40
2017-07-31T04:46:30.809Z,20.00
2017-07-31T04:48:58.376Z,20.80
2017-07-31T04:51:25.946Z,22.00
2017-07-31T04:53:53.456Z,22.80
2017-07-31T04:56:20.984Z,23.50
2017-07-31T04:58:48.506Z,24.30
2017-07-31T05:01:16.036Z,25.10
2017-07-31T05:03:43.558Z,25.70
2017-07-31T05:06:11.079Z,26.30
2017-07-31T05:08:38.613Z,26.30
2017-07-31T05:11:06.185Z,26.90
2017-07-31T05:13:33.705Z,27.10
2017-07-31T05:16:01.216Z,26.70
2017-07-31T05:18:28.724Z,26.10
2017-07-31T05:20:56.256Z,25.50
2017-07-31T05:23:23.781Z,25.20
2017-07-31T05:25:51.332Z,24.90
2017-07-31T05:28:18.901Z,24.80
2017-07-31T05:30:46.476Z,24.80
2017-07-31T05:33:14.069Z,25.10
2017-07-31T05:35:41.622Z,25.40
2017-07-31T05:38:09.143Z,25.60
2017-07-31T05:40:36.675Z,26.00
2017-07-31T05:43:04.222Z,26.30
2017-07-31T05:45:31.741Z,26.30
2017-07-31T05:47:59.316Z,25.90
2017-07-31T05:50:26.920Z,25.00
2017-07-31T05:52:54.490Z,24.60
2017-07-31T05:55:25.773Z,23.90
2017-07-31T05:57:53.315Z,23.50
2017-07-31T06:00:20.901Z,23.00
2017-07-31T06:02:49.145Z,22.60
2017-07-31T06:05:18.653Z,22.30
2017-07-31T06:07:46.237Z,21.90
2017-07-31T06:10:13.849Z,21.70
2017-07-31T06:12:49.038Z,21.50
2017-07-31T06:15:17.628Z,21.40
2017-07-31T06:17:45.253Z,21.40
2017-07-31T06:20:12.872Z,21.40
2017-07-31T06:22:40.519Z,21.70
2017-07-31T06:25:08.103Z,22.10
2017-07-31T06:27:35.637Z,22.60
2017-07-31T06:30:03.236Z,23.00
2017-07-31T06:32:30.748Z,23.30
2017-07-31T06:34:59.021Z,23.50
2017-07-31T06:37:29.730Z,23.80
2017-07-31T06:39:57.240Z,24.10
2017-07-31T06:42:24.742Z,24.30
2017-07-31T06:44:52.251Z,24.60
2017-07-31T06:47:19.763Z,24.80
2017-07-31T06:49:47.276Z,25.00
2017-07-31T06:52:14.783Z,25.20
2017-07-31T06:54:42.291Z,25.10
2017-07-31T06:57:09.787Z,25.10
2017-07-31T06:59:37.296Z,25.20
2017-07-31T07:02:04.794Z,25.10
2017-07-31T07:04:32.327Z,25.10
2017-07-31T07:06:59.848Z,24.70
2017-07-31T07:09:27.385Z,24.40
2017-07-31T07:11:54.879Z,24.10
2017-07-31T07:14:22.421Z,23.90
2017-07-31T07:16:49.933Z,23.80
2017-07-31T07:19:17.453Z,23.70
2017-07-31T07:21:44.973Z,23.60
2017-07-31T07:24:12.501Z,23.60
2017-07-31T07:26:40.038Z,23.40
2017-07-31T07:29:07.609Z,23.40
2017-07-31T07:31:35.174Z,23.50
2017-07-31T07:34:02.713Z,23.80
2017-07-31T07:36:33.660Z,23.90
2017-07-31T07:39:01.201Z,23.80
2017-07-31T07:41:28.701Z,23.80
2017-07-31T07:43:56.229Z,23.60
2017-07-31T07:46:23.713Z,23.60
2017-07-31T07:48:51.232Z,23.70
2017-07-31T07:51:18.746Z,23.90
2017-07-31T07:53:46.297Z,24.00
2017-07-31T07:56:13.836Z,24.20
2017-07-31T07:58:41.374Z,24.20
2017-07-31T08:01:08.976Z,24.30
2017-07-31T08:03:36.518Z,24.20
2017-07-31T08:08:57.409Z,24.10
2017-07-31T08:11:24.965Z,24.00
2017-07-31T08:13:52.497Z,24.00
2017-07-31T08:16:20.008Z,24.10
2017-07-31T08:18:47.552Z,24.10
2017-07-31T08:21:15.109Z,24.40
2017-07-31T08:23:42.722Z,24.60
2017-07-31T08:26:10.266Z,24.70
2017-07-31T08:28:37.800Z,24.90
2017-07-31T08:31:05.363Z,25.00
2017-07-31T08:33:33.132Z,25.00
2017-07-31T08:36:00.696Z,25.20
2017-07-31T08:38:33.901Z,25.30
2017-07-31T08:41:01.404Z,25.40
2017-07-31T08:43:28.921Z,25.50
2017-07-31T08:45:59.760Z,25.40
2017-07-31T08:48:27.275Z,25.40
2017-07-31T08:50:54.785Z,25.30
2017-07-31T08:53:25.955Z,25.40
2017-07-31T08:55:53.473Z,25.30
2017-07-31T08:58:21.002Z,25.30
2017-07-31T09:00:48.525Z,25.20
2017-07-31T09:03:16.095Z,25.30
2017-07-31T09:05:43.595Z,25.30
2017-07-31T09:08:11.113Z,25.40
2017-07-31T09:10:38.616Z,25.60
2017-07-31T09:13:06.140Z,25.70
2017-07-31T09:15:33.720Z,25.70
2017-07-31T09:18:01.273Z,25.50
2017-07-31T09:20:28.802Z,25.40
2017-07-31T09:22:56.332Z,25.70
2017-07-31T09:25:23.858Z,25.70
2017-07-31T09:27:51.388Z,25.90
2017-07-31T09:30:18.891Z,25.80
2017-07-31T09:32:46.417Z,25.80
2017-07-31T09:35:13.940Z,25.60
2017-07-31T09:37:41.457Z,25.40
2017-07-31T09:40:09.125Z,25.30
2017-07-31T09:42:36.660Z,25.60
2017-07-31T09:45:04.226Z,26.00
2017-07-31T09:47:31.802Z,26.00
2017-07-31T09:49:59.361Z,26.20
2017-07-31T09:52:30.532Z,26.50
2017-07-31T09:54:58.054Z,26.80
2017-07-31T09:57:25.587Z,26.90
2017-07-31T09:59:53.085Z,27.00
2017-07-31T10:02:20.638Z,26.70
2017-07-31T10:04:48.148Z,26.70
2017-07-31T10:07:15.664Z,26.60
2017-07-31T10:09:43.174Z,26.60
2017-07-31T10:12:10.690Z,26.70
2017-07-31T10:14:38.196Z,26.80
2017-07-31T10:17:05.733Z,27.20
2017-07-31T10:19:33.229Z,27.40
2017-07-31T10:22:00.751Z,27.40
2017-07-31T10:24:28.249Z,27.60
2017-07-31T10:26:55.754Z,27.60
2017-07-31T10:29:23.284Z,27.30
2017-07-31T10:31:50.790Z,27.00
2017-07-31T10:34:18.558Z,26.80
2017-07-31T10:36:46.085Z,26.60
2017-07-31T10:39:13.673Z,26.40
2017-07-31T10:41:41.213Z,26.30
2017-07-31T10:44:08.833Z,26.30
2017-07-31T10:46:36.374Z,26.30
2017-07-31T10:49:04.007Z,26.20
2017-07-31T10:51:34.433Z,26.20
2017-07-31T10:54:01.964Z,26.20
2017-07-31T10:56:29.469Z,26.30
2017-07-31T10:58:57.006Z,26.30
2017-07-31T11:01:24.740Z,26.20
2017-07-31T11:03:52.575Z,26.00
2017-07-31T11:06:20.178Z,25.90
2017-07-31T11:08:47.782Z,25.70
2017-07-31T11:11:15.380Z,25.80
2017-07-31T11:13:42.993Z,25.80
2017-07-31T11:16:10.610Z,26.00
2017-07-31T11:18:38.239Z,26.20
2017-07-31T11:21:05.832Z,26.30
2017-07-31T11:23:33.445Z,26.20
2017-07-31T11:26:01.031Z,26.30
2017-07-31T11:28:28.723Z,26.40
2017-07-31T11:30:56.383Z,26.70
2017-07-31T11:33:23.937Z,26.80
2017-07-31T11:35:51.497Z,27.00
2017-07-31T11:38:19.120Z,27.20
2017-07-31T11:40:46.700Z,27.20
2017-07-31T11:43:14.276Z,27.10
2017-07-31T11:45:41.865Z,27.00
2017-07-31T11:48:09.456Z,27.00
2017-07-31T11:50:37.122Z,27.00
2017-07-31T11:53:08.562Z,27.00
2017-07-31T11:55:36.070Z,27.10
2017-07-31T11:58:03.585Z,27.30
2017-07-31T12:00:31.096Z,27.50
2017-07-31T12:02:58.618Z,27.40
2017-07-31T12:05:26.141Z,27.50
2017-07-31T12:07:53.672Z,27.70
2017-07-31T12:10:21.181Z,27.80
2017-07-31T12:12:48.704Z,27.80
2017-07-31T12:15:16.233Z,27.90
2017-07-31T12:17:43.758Z,28.00
2017-07-31T12:20:11.283Z,28.00
2017-07-31T12:22:38.807Z,28.00
2017-07-31T12:25:06.330Z,28.10
2017-07-31T12:27:33.977Z,28.30
2017-07-31T12:30:01.481Z,28.70
2017-07-31T12:32:29.035Z,28.70
2017-07-31T12:34:56.568Z,28.90
2017-07-31T12:37:24.105Z,29.00
2017-07-31T12:39:51.637Z,29.00
2017-07-31T12:42:19.183Z,28.90
2017-07-31T12:44:51.175Z,28.70
2017-07-31T12:47:18.716Z,28.60
2017-07-31T12:49:46.252Z,28.50
2017-07-31T12:52:17.545Z,28.50
2017-07-31T12:54:45.092Z,28.40
2017-07-31T12:57:12.610Z,28.10
2017-07-31T12:59:40.113Z,27.80
2017-07-31T13:02:07.704Z,27.90
2017-07-31T13:04:35.222Z,27.70
2017-07-31T13:07:02.751Z,27.60
2017-07-31T13:09:30.269Z,27.70
2017-07-31T13:11:57.786Z,27.80
2017-07-31T13:14:25.610Z,27.90
2017-07-31T13:16:53.209Z,28.00
2017-07-31T13:19:20.805Z,28.20
2017-07-31T13:21:48.344Z,28.30
2017-07-31T13:24:15.840Z,28.00
2017-07-31T13:26:43.398Z,27.90
2017-07-31T13:29:10.897Z,27.80
2017-07-31T13:31:38.424Z,27.80
2017-07-31T13:34:05.959Z,27.90
2017-07-31T13:36:33.464Z,28.20
2017-07-31T13:39:01.034Z,28.20
2017-07-31T13:41:28.558Z,28.40
2017-07-31T13:46:28.553Z,28.30
2017-07-31T13:48:56.079Z,28.30
2017-07-31T13:51:23.611Z,28.30
2017-07-31T13:53:51.133Z,28.10
2017-07-31T13:56:18.632Z,28.00
2017-07-31T13:58:46.151Z,27.90
2017-07-31T14:01:13.667Z,27.90
2017-07-31T14:03:41.207Z,28.00
2017-07-31T14:06:08.983Z,28.00
2017-07-31T14:08:36.525Z,28.00
2017-07-31T14:11:04.017Z,28.00
2017-07-31T14:13:31.527Z,28.20
2017-07-31T14:16:02.660Z,28.20
2017-07-31T14:18:30.182Z,28.30
2017-07-31T14:20:57.681Z,28.50
2017-07-31T14:23:25.200Z,28.60
2017-07-31T14:25:52.716Z,28.70
2017-07-31T14:28:20.235Z,28.50
2017-07-31T14:30:47.960Z,28.30
2017-07-31T14:33:16.071Z,28.20
2017-07-31T14:35:47.755Z,28.20
2017-07-31T14:38:15.302Z,28.10
2017-07-31T14:43:15.322Z,27.60
2017-07-31T14:51:13.625Z,27.70
2017-07-31T14:53:41.252Z,27.70
2017-07-31T14:56:09.814Z,27.70
2017-07-31T14:58:37.674Z,27.70
2017-07-31T15:01:05.189Z,27.70
2017-07-31T15:03:32.971Z,27.60
2017-07-31T15:06:00.835Z,27.50
2017-07-31T15:08:28.384Z,27.30
2017-07-31T15:10:55.881Z,27.30
2017-07-31T15:13:23.396Z,27.30
2017-07-31T15:15:53.968Z,27.40
2017-07-31T15:18:21.483Z,27.50
2017-07-31T15:20:48.984Z,27.60
2017-07-31T15:23:16.500Z,27.60
2017-07-31T15:25:43.997Z,27.60
2017-07-31T15:28:11.512Z,27.80
2017-07-31T15:30:39.010Z,27.90
2017-07-31T15:33:06.515Z,27.80
2017-07-31T15:35:34.008Z,27.70
2017-07-31T15:38:01.530Z,27.60
2017-07-31T15:40:29.025Z,27.50
2017-07-31T15:42:56.525Z,27.40
2017-07-31T15:45:24.057Z,27.40
2017-07-31T15:47:51.545Z,27.50
2017-07-31T15:50:19.066Z,27.50
2017-07-31T15:52:46.561Z,27.60
2017-07-31T15:55:14.070Z,27.70
2017-07-31T15:57:41.589Z,27.70
2017-07-31T16:00:09.092Z,27.70
2017-07-31T16:02:36.613Z,27.60
2017-07-31T16:05:04.125Z,27.60
2017-07-31T16:07:31.646Z,27.60
2017-07-31T16:09:59.141Z,27.60
2017-07-31T16:12:26.650Z,27.60
2017-07-31T16:14:57.277Z,27.60
2017-07-31T16:17:24.810Z,27.50
2017-07-31T16:19:52.316Z,27.50
2017-07-31T16:22:24.013Z,27.50
2017-07-31T16:24:51.510Z,27.50
2017-07-31T16:27:19.012Z,27.50
2017-07-31T16:29:46.525Z,27.40
2017-07-31T16:32:14.037Z,27.40
2017-07-31T16:34:41.588Z,27.30
2017-07-31T16:37:17.613Z,27.30
2017-07-31T16:39:45.137Z,27.20
2017-07-31T16:42:12.643Z,27.20
2017-07-31T16:44:47.999Z,27.10
2017-07-31T16:47:39.073Z,27.20
2017-07-31T16:50:06.594Z,27.10
2017-07-31T16:52:34.090Z,27.00
2017-07-31T16:55:01.592Z,27.00
2017-07-31T16:57:29.108Z,27.00
2017-07-31T16:59:56.607Z,27.10
2017-07-31T17:02:24.123Z,27.10
2017-07-31T17:04:51.620Z,27.20
2017-07-31T17:07:19.127Z,27.10
2017-07-31T17:09:46.637Z,27.00
2017-07-31T17:12:14.156Z,27.00
2017-07-31T17:14:41.650Z,27.00
2017-07-31T17:17:09.173Z,26.90
2017-07-31T17:19:36.668Z,26.90
2017-07-31T17:22:07.114Z,26.90
2017-07-31T17:24:34.624Z,26.90
2017-07-31T17:27:02.145Z,26.90
2017-07-31T17:29:29.641Z,26.70
2017-07-31T17:31:57.128Z,26.70
2017-07-31T17:34:24.655Z,26.60
2017-07-31T17:36:52.406Z,26.50
2017-07-31T17:39:19.967Z,26.40
2017-07-31T17:41:50.589Z,26.40
2017-07-31T17:44:18.388Z,26.40
2017-07-31T17:46:45.897Z,26.20
2017-07-31T17:49:13.389Z,26.20
2017-07-31T17:51:40.904Z,26.10
2017-07-31T17:54:08.393Z,26.00
2017-07-31T17:56:35.910Z,26.00
2017-07-31T17:59:03.417Z,25.90
2017-07-31T18:01:30.915Z,25.80
2017-07-31T18:03:58.436Z,25.80
2017-07-31T18:06:25.935Z,25.70
2017-07-31T18:08:53.460Z,25.70
2017-07-31T18:11:20.949Z,25.70
2017-07-31T18:13:48.467Z,25.60
2017-07-31T18:16:15.975Z,25.50
2017-07-31T18:18:43.492Z,25.40
2017-07-31T18:21:10.993Z,25.40
2017-07-31T18:23:38.511Z,25.30
2017-07-31T18:26:06.008Z,25.20
2017-07-31T18:28:33.525Z,25.10
2017-07-31T18:31:01.028Z,25.00
2017-07-31T18:33:28.549Z,24.90
2017-07-31T18:35:56.045Z,24.90
2017-07-31T18:38:23.566Z,24.80
2017-07-31T18:40:51.065Z,24.70
2017-07-31T18:43:21.941Z,24.60
2017-07-31T18:45:49.433Z,24.40
2017-07-31T18:48:16.945Z,24.40
2017-07-31T18:50:44.454Z,24.30
2017-07-31T18:53:11.973Z,24.20
2017-07-31T18:55:39.468Z,24.10
2017-07-31T18:58:06.983Z,24.00
2017-07-31T19:00:34.472Z,23.80
2017-07-31T19:03:01.993Z,23.70
2017-07-31T19:05:29.525Z,23.70
2017-07-31T19:07:57.028Z,23.60
2017-07-31T19:10:24.541Z,23.50
2017-07-31T19:12:52.041Z,23.40
2017-07-31T19:15:19.552Z,23.40
2017-07-31T19:17:47.049Z,23.30
2017-07-31T19:20:14.564Z,23.30
2017-07-31T19:22:42.065Z,23.30
2017-07-31T19:25:09.587Z,23.20
2017-07-31T19:27:37.085Z,23.20
2017-07-31T19:30:04.626Z,23.20
2017-07-31T19:32:32.145Z,23.20
2017-07-31T19:34:59.658Z,23.10
2017-07-31T19:37:27.185Z,23.10
2017-07-31T19:39:54.675Z,23.10
2017-07-31T19:42:22.189Z,23.00
2017-07-31T19:44:49.689Z,22.90
2017-07-31T19:47:17.203Z,22.80
2017-07-31T19:49:44.731Z,22.70
2017-07-31T19:52:12.261Z,22.70
2017-07-31T19:54:40.117Z,22.70
2017-07-31T19:57:07.617Z,22.60
2017-07-31T19:59:35.711Z,22.60
2017-07-31T20:02:03.219Z,22.60
2017-07-31T20:04:30.901Z,22.50
2017-07-31T20:06:58.432Z,22.50
2017-07-31T20:09:25.954Z,22.50
2017-07-31T20:11:53.452Z,22.50
2017-07-31T20:14:20.982Z,22.50
2017-07-31T20:16:48.525Z,22.40
2017-07-31T20:19:16.052Z,22.40
2017-07-31T20:21:43.552Z,22.40
2017-07-31T20:24:11.078Z,22.30
2017-07-31T20:26:38.604Z,22.30
2017-07-31T20:29:06.118Z,22.30
2017-07-31T20:31:33.628Z,22.20
2017-07-31T20:34:01.154Z,22.20
2017-07-31T20:36:29.573Z,22.10
2017-07-31T20:38:57.274Z,22.00
2017-07-31T20:41:28.564Z,22.00
2017-07-31T20:43:56.090Z,22.00
2017-07-31T20:46:23.596Z,21.90
2017-07-31T20:48:51.118Z,21.90
2017-07-31T20:51:18.634Z,21.90
2017-07-31T20:53:46.170Z,21.80
2017-07-31T20:56:13.714Z,21.80
2017-07-31T20:58:41.251Z,21.80
2017-07-31T21:01:08.985Z,21.70
2017-07-31T21:03:36.517Z,21.80
2017-07-31T21:06:04.039Z,21.80
2017-07-31T21:08:31.585Z,21.70
2017-07-31T21:10:59.089Z,21.60
2017-07-31T21:13:26.609Z,21.60
2017-07-31T21:15:54.109Z,21.50
2017-07-31T21:18:21.988Z,21.50
2017-07-31T21:20:49.501Z,21.50
2017-07-31T21:23:17.016Z,21.40
2017-07-31T21:25:44.520Z,21.40
2017-07-31T21:28:12.037Z,21.40
2017-07-31T21:30:39.538Z,21.40
2017-07-31T21:33:07.071Z,21.40
2017-07-31T21:35:34.565Z,21.30
2017-07-31T21:38:02.108Z,21.30
2017-07-31T21:40:29.616Z,21.20
2017-07-31T21:43:00.469Z,21.20
2017-07-31T21:45:27.964Z,21.20
2017-07-31T21:47:55.482Z,21.10
2017-07-31T21:50:22.982Z,21.10
2017-07-31T21:52:50.504Z,21.10
2017-07-31T21:55:18.000Z,21.10
2017-07-31T21:57:45.510Z,21.10
2017-07-31T22:00:13.021Z,21.10
2017-07-31T22:02:40.572Z,21.10
2017-07-31T22:05:08.077Z,21.00
2017-07-31T22:07:35.618Z,21.00
2017-07-31T22:10:03.156Z,21.00
2017-07-31T22:12:30.695Z,21.00
2017-07-31T22:14:58.201Z,20.90
2017-07-31T22:17:31.309Z,21.00
2017-07-31T22:19:58.809Z,20.90
2017-07-31T22:22:26.321Z,20.90
2017-07-31T22:24:53.824Z,20.90
2017-07-31T22:27:21.331Z,20.90
2017-07-31T22:29:48.823Z,20.90
2017-07-31T22:32:16.332Z,20.90
2017-07-31T22:34:43.830Z,20.90
2017-07-31T22:37:11.349Z,20.90
2017-07-31T22:39:38.841Z,20.80
2017-07-31T22:42:09.797Z,20.80
2017-07-31T22:44:37.305Z,20.80
2017-07-31T22:47:04.833Z,20.80
2017-07-31T22:49:32.328Z,20.80
2017-07-31T22:51:59.848Z,20.80
2017-07-31T22:54:27.345Z,20.80
2017-07-31T22:56:54.860Z,20.80
2017-07-31T22:59:22.349Z,20.80
2017-07-31T23:01:49.867Z,20.80
2017-07-31T23:04:17.372Z,20.80
2017-07-31T23:06:44.891Z,20.80
2017-07-31T23:09:12.392Z,20.70
2017-07-31T23:11:39.916Z,20.70
2017-07-31T23:14:07.417Z,20.70
2017-07-31T23:16:34.928Z,20.70
2017-07-31T23:19:02.425Z,20.70
2017-07-31T23:21:29.940Z,20.70
2017-07-31T23:23:58.276Z,20.70
2017-07-31T23:26:25.797Z,20.70
2017-07-31T23:28:53.303Z,20.80
2017-07-31T23:31:20.816Z,20.80
2017-07-31T23:33:48.315Z,20.80
2017-07-31T23:36:15.834Z,20.90
2017-07-31T23:38:43.332Z,20.90
2017-07-31T23:41:10.848Z,20.90
2017-07-31T23:43:42.197Z,21.00
2017-07-31T23:46:09.710Z,21.00
2017-07-31T23:48:37.219Z,20.90
2017-07-31T23:51:04.741Z,20.90
2017-07-31T23:53:32.229Z,21.00
2017-07-31T23:55:59.755Z,21.00
2017-07-31T23:58:27.253Z,21.00
